Time;durP1;ratioP1;P1;durP2;ratioP2;P2;SDS_P1;SDS_P2;PMS_P1;PMS_P2;Temp;Humidity;BMP_temperature;BMP_pressure;BME280_temperature;BME280_humidity;BME280_pressure;Samples;Min_cycle;Max_cycle;Signal;HPM_P1;HPM_P2
2023/04/28 00:01:29;;;;;;;3.75;1.70;;;18.40;1.00;;;;;;4900259;29;20123;-39
2023/04/28 00:03:57;;;;;;;5.30;2.33;;;18.40;1.00;;;;;;4899952;29;20044;-39
2023/04/28 00:06:24;;;;;;;2.67;1.92;;;18.40;1.00;;;;;;4901401;29;20066;-38
2023/04/28 00:08:51;;;;;;;6.07;2.08;;;18.30;1.00;;;;;;4902052;29;20049;-37
2023/04/28 00:11:18;;;;;;;4.45;1.65;;;18.30;1.00;;;;;;4902060;29;20044;-37
2023/04/28 00:13:44;;;;;;;1.60;1.17;;;18.30;1.00;;;;;;4901777;29;20060;-37
2023/04/28 00:16:11;;;;;;;2.67;2.08;;;18.30;1.00;;;;;;4915049;23;20097;-40
2023/04/28 00:18:38;;;;;;;6.80;1.92;;;18.30;1.00;;;;;;4879374;29;20462;-39
2023/04/28 00:21:05;;;;;;;2.92;2.20;;;18.30;1.00;;;;;;4871386;29;20037;-39
2023/04/28 00:23:32;;;;;;;3.08;1.75;;;18.30;1.00;;;;;;4878513;29;20089;-38
2023/04/28 00:25:58;;;;;;;3.20;1.80;;;18.20;1.00;;;;;;4882353;29;20576;-39
2023/04/28 00:28:25;;;;;;;4.18;1.88;;;18.20;1.00;;;;;;4882428;29;20052;-38
2023/04/28 00:31:01;;;;;;;3.70;1.90;;;18.20;1.00;;;;;;4881372;29;20544;-39
2023/04/28 00:33:28;;;;;;;3.92;1.77;;;18.20;1.00;;;;;;4881081;29;20053;-38
2023/04/28 00:35:59;;;;;;;3.15;1.60;;;18.20;1.00;;;;;;4879578;29;20080;-40
2023/04/28 00:38:26;;;;;;;5.82;2.03;;;18.20;1.00;;;;;;4882031;29;20041;-38
2023/04/28 00:40:53;;;;;;;4.55;1.80;;;18.20;1.00;;;;;;4882074;29;20045;-38
2023/04/28 00:43:20;;;;;;;3.95;2.10;;;18.20;1.00;;;;;;4880904;29;20509;-38
2023/04/28 00:45:48;;;;;;;3.50;2.03;;;18.10;1.00;;;;;;4881856;29;20128;-38
2023/04/28 00:48:16;;;;;;;4.95;1.60;;;18.10;1.00;;;;;;4879042;29;20061;-38
2023/04/28 00:50:44;;;;;;;2.35;1.63;;;18.10;1.00;;;;;;4878265;29;20057;-38
2023/04/28 00:53:11;;;;;;;4.70;1.77;;;18.10;1.00;;;;;;4882305;29;20053;-38
2023/04/28 00:55:39;;;;;;;2.40;1.50;;;18.10;1.00;;;;;;4881959;29;20049;-38
2023/04/28 00:58:06;;;;;;;3.00;1.38;;;18.00;1.00;;;;;;4881779;29;20057;-38
2023/04/28 01:00:33;;;;;;;3.58;1.63;;;18.00;1.00;;;;;;4882364;29;20093;-38
2023/04/28 01:03:00;;;;;;;3.88;1.60;;;18.00;1.00;;;;;;4878410;29;20106;-38
2023/04/28 01:05:33;;;;;;;4.82;1.80;;;18.00;1.00;;;;;;4879939;29;20037;-38
2023/04/28 01:08:00;;;;;;;2.50;1.77;;;18.00;1.00;;;;;;4881194;29;20100;-38
2023/04/28 01:10:27;;;;;;;4.80;2.40;;;18.00;1.00;;;;;;4880284;29;20045;-38
2023/04/28 01:12:56;;;;;;;5.10;1.98;;;18.00;1.00;;;;;;4880883;29;20078;-38
2023/04/28 01:15:23;;;;;;;2.05;1.67;;;18.00;1.00;;;;;;4875962;29;20074;-38
2023/04/28 01:17:53;;;;;;;6.13;2.42;;;17.90;1.00;;;;;;5018110;23;20061;-39
2023/04/28 01:20:20;;;;;;;4.55;1.75;;;17.90;1.00;;;;;;4897455;29;20057;-40
2023/04/28 01:22:47;;;;;;;5.10;2.03;;;17.90;1.00;;;;;;4878661;29;20052;-37
2023/04/28 01:25:14;;;;;;;3.05;1.70;;;17.90;1.00;;;;;;4899826;29;20092;-38
2023/04/28 01:27:40;;;;;;;4.75;1.80;;;17.90;1.00;;;;;;4877894;29;20047;-38
2023/04/28 01:30:08;;;;;;;2.60;1.83;;;17.90;1.00;;;;;;4883611;29;20377;-38
2023/04/28 01:32:35;;;;;;;5.35;1.70;;;17.90;1.00;;;;;;4884141;29;20073;-38
2023/04/28 01:35:02;;;;;;;3.95;2.00;;;17.90;1.00;;;;;;4870424;29;20052;-39
2023/04/28 01:37:29;;;;;;;3.80;1.75;;;17.80;1.00;;;;;;4879859;29;20052;-38
2023/04/28 01:39:56;;;;;;;3.05;1.60;;;17.80;1.00;;;;;;4882900;29;20565;-38
2023/04/28 01:42:24;;;;;;;5.90;2.10;;;17.80;1.00;;;;;;4882801;29;20056;-38
2023/04/28 01:44:51;;;;;;;4.80;1.67;;;17.80;1.00;;;;;;4883869;29;20075;-38
2023/04/28 01:50:14;;;;;;;3.00;2.03;;;17.80;1.00;;;;;;4858173;29;20410;-39
2023/04/28 01:52:41;;;;;;;2.65;1.70;;;17.80;1.00;;;;;;4858160;29;20053;-38
2023/04/28 01:55:09;;;;;;;3.58;2.20;;;17.80;1.00;;;;;;4856877;29;20590;-40
2023/04/28 01:57:36;;;;;;;3.42;2.15;;;17.80;1.00;;;;;;4856556;29;20162;-38
2023/04/28 02:00:04;;;;;;;2.30;1.73;;;17.70;1.00;;;;;;4861867;29;20117;-39
2023/04/28 02:02:33;;;;;;;5.30;2.42;;;17.80;1.00;;;;;;4863156;29;20057;-39
2023/04/28 02:05:00;;;;;;;3.05;1.88;;;17.70;1.00;;;;;;4853839;29;20046;-39
2023/04/28 02:07:28;;;;;;;3.50;2.17;;;17.70;1.00;;;;;;4855533;29;20037;-39
2023/04/28 02:09:54;;;;;;;2.13;1.55;;;17.70;1.00;;;;;;4864911;29;20049;-39
2023/04/28 02:12:21;;;;;;;3.35;2.00;;;17.70;1.00;;;;;;4863755;29;20045;-38
2023/04/28 02:14:50;;;;;;;2.40;1.70;;;17.70;1.00;;;;;;4863089;29;20526;-41
2023/04/28 02:17:16;;;;;;;3.33;2.00;;;17.70;1.00;;;;;;4862058;29;20060;-39
2023/04/28 02:19:43;;;;;;;3.08;1.75;;;17.70;1.00;;;;;;4863378;29;20064;-39
2023/04/28 02:22:11;;;;;;;2.80;2.05;;;17.70;1.00;;;;;;4881651;23;20053;-39
2023/04/28 02:24:39;;;;;;;2.88;1.88;;;17.70;1.00;;;;;;4873124;29;20037;-41
2023/04/28 02:27:06;;;;;;;3.08;1.70;;;17.70;1.00;;;;;;4872441;29;20048;-38
2023/04/28 02:29:33;;;;;;;3.30;1.90;;;17.70;1.00;;;;;;4873447;29;20042;-41
2023/04/28 02:31:59;;;;;;;3.95;1.58;;;17.60;1.00;;;;;;4885047;29;20056;-38
2023/04/28 02:34:26;;;;;;;4.80;2.13;;;17.60;1.00;;;;;;4880140;29;20049;-38
2023/04/28 02:36:53;;;;;;;4.25;2.10;;;17.60;1.00;;;;;;4885509;29;20060;-38
2023/04/28 02:39:21;;;;;;;5.03;1.35;;;17.60;1.00;;;;;;4877473;29;20065;-38
2023/04/28 02:41:48;;;;;;;4.18;2.20;;;17.60;1.00;;;;;;4879085;29;20045;-39
2023/04/28 02:44:15;;;;;;;3.55;2.13;;;17.60;1.00;;;;;;4874150;29;20044;-39
2023/04/28 02:46:42;;;;;;;3.40;1.98;;;17.50;1.00;;;;;;4874220;29;20106;-39
2023/04/28 02:49:08;;;;;;;4.20;1.55;;;17.50;1.00;;;;;;4864671;29;20076;-38
2023/04/28 02:51:35;;;;;;;4.07;2.25;;;17.60;1.00;;;;;;4889450;23;20073;-38
2023/04/28 02:54:02;;;;;;;2.47;1.75;;;17.50;1.00;;;;;;4874299;29;20049;-38
2023/04/28 02:56:29;;;;;;;2.45;1.98;;;17.50;1.00;;;;;;4868515;29;20042;-39
2023/04/28 02:58:57;;;;;;;5.88;1.73;;;17.50;1.00;;;;;;4875983;29;20136;-38
2023/04/28 03:01:23;;;;;;;2.15;1.55;;;17.50;1.00;;;;;;4873297;29;20051;-41
2023/04/28 03:03:50;;;;;;;4.65;1.98;;;17.50;1.00;;;;;;4878848;29;20052;-39
2023/04/28 03:06:17;;;;;;;3.63;2.03;;;17.50;1.00;;;;;;4879045;29;20045;-39
2023/04/28 03:08:44;;;;;;;3.13;2.10;;;17.50;1.00;;;;;;4881629;29;20041;-39
2023/04/28 03:11:11;;;;;;;3.90;1.88;;;17.50;1.00;;;;;;4872760;29;20044;-39
2023/04/28 03:13:38;;;;;;;2.95;2.20;;;17.50;1.00;;;;;;4870466;29;20052;-39
2023/04/28 03:16:05;;;;;;;4.07;1.70;;;17.40;1.00;;;;;;4878663;29;21393;-38
2023/04/28 03:18:32;;;;;;;1.92;1.55;;;17.40;1.00;;;;;;4878862;29;20136;-38
2023/04/28 03:20:59;;;;;;;2.90;2.10;;;17.40;1.00;;;;;;4878460;29;20049;-39
2023/04/28 03:23:43;;;;;;;2.03;1.80;;;17.40;1.00;;;;;;4870153;29;20045;-40
2023/04/28 03:26:10;;;;;;;3.80;1.55;;;17.40;1.00;;;;;;4878661;29;20053;-39
2023/04/28 03:28:37;;;;;;;4.35;2.00;;;17.40;1.00;;;;;;4879219;29;20520;-39
2023/04/28 03:31:03;;;;;;;2.25;1.60;;;17.40;1.00;;;;;;4880282;29;20049;-41
2023/04/28 03:33:30;;;;;;;4.57;2.10;;;17.40;1.00;;;;;;4874794;29;20159;-38
2023/04/28 03:35:58;;;;;;;5.00;1.80;;;17.40;1.00;;;;;;4878136;29;20059;-40
2023/04/28 03:38:25;;;;;;;2.20;1.75;;;17.40;1.00;;;;;;4880930;29;20053;-39
2023/04/28 03:40:52;;;;;;;4.70;2.13;;;17.40;1.00;;;;;;4870715;29;20049;-39
2023/04/28 03:43:39;;;;;;;3.05;2.00;;;17.40;1.00;;;;;;4879544;29;20072;-41
2023/04/28 03:46:26;;;;;;;3.55;1.80;;;17.40;1.00;;;;;;4879810;29;20056;-39
2023/04/28 03:48:53;;;;;;;3.33;1.90;;;17.30;1.00;;;;;;4879016;29;20058;-38
2023/04/28 03:51:20;;;;;;;8.52;2.00;;;17.30;1.00;;;;;;4878556;29;20049;-42
2023/04/28 03:53:46;;;;;;;2.50;1.40;;;17.30;1.00;;;;;;4871970;29;20044;-39
2023/04/28 03:56:13;;;;;;;5.70;1.40;;;17.30;1.00;;;;;;4876673;29;20037;-38
2023/04/28 03:58:40;;;;;;;4.53;1.77;;;17.30;1.00;;;;;;4881025;29;20049;-38
2023/04/28 04:01:07;;;;;;;2.72;1.20;;;17.30;1.00;;;;;;4884508;29;20052;-39
2023/04/28 04:03:34;;;;;;;2.63;1.65;;;17.30;1.00;;;;;;4867329;29;20045;-38
2023/04/28 04:06:01;;;;;;;2.50;1.58;;;17.30;1.00;;;;;;4882776;29;20049;-38
2023/04/28 04:08:28;;;;;;;2.92;1.70;;;17.30;1.00;;;;;;4882834;29;20454;-39
2023/04/28 04:10:55;;;;;;;2.78;1.48;;;17.30;1.00;;;;;;4879450;29;20053;-41
2023/04/28 04:13:22;;;;;;;2.35;1.80;;;17.30;1.00;;;;;;4873206;29;20053;-38
2023/04/28 04:15:51;;;;;;;2.65;1.40;;;17.30;1.00;;;;;;4875110;29;20053;-38
2023/04/28 04:18:20;;;;;;;2.67;1.60;;;17.30;1.00;;;;;;4878310;29;20052;-39
2023/04/28 04:21:08;;;;;;;3.08;1.15;;;17.30;1.00;;;;;;4878420;29;20057;-38
2023/04/28 04:23:35;;;;;;;2.50;1.48;;;17.20;1.00;;;;;;5026837;23;20080;-39
2023/04/28 04:26:01;;;;;;;2.65;1.75;;;17.20;1.00;;;;;;4872456;29;20045;-39
2023/04/28 04:28:28;;;;;;;3.47;1.58;;;17.20;1.00;;;;;;4871916;29;20382;-39
2023/04/28 04:30:55;;;;;;;4.80;1.65;;;17.20;1.00;;;;;;4877204;29;20049;-41
2023/04/28 04:33:22;;;;;;;3.92;1.83;;;17.20;1.00;;;;;;4869239;29;20045;-39
2023/04/28 04:35:49;;;;;;;3.65;1.90;;;17.20;1.00;;;;;;4877410;29;20053;-39
2023/04/28 04:38:16;;;;;;;2.63;1.63;;;17.20;1.00;;;;;;4878150;29;20219;-39
2023/04/28 04:40:43;;;;;;;2.50;1.77;;;17.20;1.00;;;;;;4877678;29;20430;-39
2023/04/28 04:43:10;;;;;;;2.85;2.00;;;17.20;1.00;;;;;;4861986;29;20073;-39
2023/04/28 04:45:43;;;;;;;2.25;1.63;;;17.20;1.00;;;;;;4871611;29;20065;-39
2023/04/28 04:48:13;;;;;;;2.13;1.30;;;17.10;1.00;;;;;;4870628;29;20497;-39
2023/04/28 04:50:41;;;;;;;5.53;1.85;;;17.20;1.00;;;;;;4883016;29;20047;-39
2023/04/28 04:53:08;;;;;;;3.05;1.60;;;17.10;1.00;;;;;;4880746;29;20057;-41
2023/04/28 04:55:42;;;;;;;4.63;1.70;;;17.20;1.00;;;;;;4892831;29;20049;-39
2023/04/28 04:58:09;;;;;;;2.03;1.30;;;17.10;1.00;;;;;;4873225;29;20045;-39
2023/04/28 05:01:05;;;;;;;4.05;1.88;;;17.20;1.00;;;;;;4889017;29;20061;-39
2023/04/28 05:03:32;;;;;;;1.92;1.63;;;17.10;1.00;;;;;;4868612;29;20050;-39
2023/04/28 05:05:59;;;;;;;2.13;1.52;;;17.10;1.00;;;;;;4873306;29;20045;-39
2023/04/28 05:08:38;;;;;;;2.72;1.88;;;17.10;1.00;;;;;;4883747;29;20038;-38
2023/04/28 05:11:05;;;;;;;3.10;2.22;;;17.10;1.00;;;;;;4886015;29;20053;-38
2023/04/28 05:13:32;;;;;;;5.03;1.98;;;17.10;1.00;;;;;;4896864;29;20065;-38
2023/04/28 05:16:01;;;;;;;5.15;1.77;;;17.10;1.00;;;;;;4885820;29;20053;-38
2023/04/28 05:18:47;;;;;;;2.30;1.60;;;17.10;1.00;;;;;;4865880;29;20113;-38
2023/04/28 05:21:14;;;;;;;2.97;1.80;;;17.10;1.00;;;;;;4881465;29;20079;-38
2023/04/28 05:23:41;;;;;;;3.78;1.95;;;17.00;1.00;;;;;;4906939;23;20033;-39
2023/04/28 05:26:08;;;;;;;2.45;1.60;;;17.10;1.00;;;;;;4889892;29;20045;-40
2023/04/28 05:28:35;;;;;;;3.92;1.50;;;17.10;1.00;;;;;;4871367;29;20057;-38
2023/04/28 05:31:02;;;;;;;2.20;1.90;;;17.00;1.00;;;;;;4880051;29;20053;-38
2023/04/28 05:33:30;;;;;;;4.32;1.70;;;17.00;1.00;;;;;;4876438;29;20079;-38
2023/04/28 05:35:58;;;;;;;4.82;1.88;;;17.00;1.00;;;;;;4878717;29;20045;-38
2023/04/28 05:38:25;;;;;;;2.95;1.75;;;17.00;1.00;;;;;;4876249;29;20041;-41
2023/04/28 05:40:55;;;;;;;3.20;1.98;;;17.00;1.00;;;;;;4882315;29;20053;-39
2023/04/28 05:43:21;;;;;;;3.83;1.80;;;17.10;1.00;;;;;;4873018;29;20131;-40
2023/04/28 05:45:48;;;;;;;2.38;1.90;;;17.00;1.00;;;;;;4880498;29;20498;-40
2023/04/28 05:48:16;;;;;;;2.40;1.67;;;17.00;1.00;;;;;;4880261;29;20047;-41
2023/04/28 05:50:43;;;;;;;3.30;2.30;;;17.00;1.00;;;;;;4880096;29;20049;-40
2023/04/28 05:53:10;;;;;;;2.85;1.70;;;17.00;1.00;;;;;;4880054;29;20080;-41
2023/04/28 05:55:37;;;;;;;2.45;1.58;;;17.00;1.00;;;;;;4873192;29;20049;-41
2023/04/28 05:58:04;;;;;;;9.43;1.90;;;17.00;1.00;;;;;;4869415;29;20049;-42
2023/04/28 06:00:33;;;;;;;3.58;1.85;;;17.00;1.00;;;;;;4871682;29;20053;-39
2023/04/28 06:03:00;;;;;;;2.17;1.45;;;17.00;1.00;;;;;;4879151;29;20045;-40
2023/04/28 06:05:27;;;;;;;4.10;1.55;;;17.00;1.00;;;;;;4873603;29;20518;-40
2023/04/28 06:07:55;;;;;;;2.08;1.52;;;17.00;1.00;;;;;;4881093;29;20144;-39
2023/04/28 06:10:24;;;;;;;2.90;1.90;;;17.00;1.00;;;;;;4882821;29;20048;-37
2023/04/28 06:12:51;;;;;;;3.15;2.13;;;17.00;1.00;;;;;;4874466;29;20087;-39
2023/04/28 06:15:18;;;;;;;2.28;1.50;;;17.00;1.00;;;;;;4881001;29;20078;-40
2023/04/28 06:17:47;;;;;;;4.22;1.60;;;17.00;1.00;;;;;;4880524;29;20049;-41
2023/04/28 06:20:15;;;;;;;4.50;1.77;;;17.00;1.00;;;;;;4871600;29;20050;-38
2023/04/28 06:22:43;;;;;;;3.92;1.77;;;17.00;1.00;;;;;;4880187;29;20049;-39
2023/04/28 06:25:10;;;;;;;2.03;1.17;;;17.00;1.00;;;;;;4964975;23;20037;-38
2023/04/28 06:27:43;;;;;;;2.53;1.70;;;17.00;1.00;;;;;;4902500;29;20053;-38
2023/04/28 06:30:18;;;;;;;2.90;1.48;;;17.00;1.00;;;;;;4894467;29;20139;-38
2023/04/28 06:32:45;;;;;;;5.05;1.98;;;17.00;1.00;;;;;;4900825;29;20044;-38
2023/04/28 06:35:14;;;;;;;4.07;1.92;;;17.00;1.00;;;;;;4894426;29;20505;-39
2023/04/28 06:37:42;;;;;;;4.95;2.38;;;17.00;1.00;;;;;;4892198;29;20044;-41
2023/04/28 06:40:10;;;;;;;2.80;1.75;;;17.00;1.00;;;;;;4898731;29;20397;-40
2023/04/28 06:42:40;;;;;;;3.15;2.28;;;16.90;1.00;;;;;;4885888;29;20049;-39
2023/04/28 06:45:10;;;;;;;3.70;2.17;;;16.90;1.00;;;;;;4889980;29;20049;-39
2023/04/28 06:47:39;;;;;;;2.35;1.00;;;17.00;1.00;;;;;;4897627;29;20040;-40
2023/04/28 06:50:08;;;;;;;2.50;1.38;;;16.90;1.00;;;;;;4899302;29;20049;-38
2023/04/28 06:52:37;;;;;;;3.90;1.75;;;16.90;1.00;;;;;;4904752;29;20119;-38
2023/04/28 06:58:08;;;;;;;2.78;1.60;;;16.90;1.00;;;;;;4966925;23;20057;-39
2023/04/28 07:00:35;;;;;;;8.07;2.25;;;16.90;1.00;;;;;;4897044;29;20042;-39
2023/04/28 07:03:02;;;;;;;2.45;1.98;;;16.90;1.00;;;;;;4902926;29;20053;-39
2023/04/28 07:05:31;;;;;;;4.30;1.80;;;16.90;1.00;;;;;;4870089;29;20066;-39
2023/04/28 07:07:58;;;;;;;2.40;1.75;;;16.90;1.00;;;;;;4882283;29;20081;-39
2023/04/28 07:10:24;;;;;;;3.15;1.70;;;16.90;1.00;;;;;;4877668;29;20041;-38
2023/04/28 07:12:51;;;;;;;4.20;2.22;;;16.90;1.00;;;;;;4881353;29;20081;-39
2023/04/28 07:15:18;;;;;;;4.90;1.70;;;16.90;1.00;;;;;;4880400;29;20167;-39
2023/04/28 07:17:44;;;;;;;4.95;2.00;;;16.90;1.00;;;;;;4879944;29;20056;-38
2023/04/28 07:20:14;;;;;;;5.82;2.63;;;16.90;1.00;;;;;;4884687;29;20055;-38
2023/04/28 07:22:41;;;;;;;4.47;1.88;;;16.90;1.00;;;;;;4884623;29;20143;-39
2023/04/28 07:25:08;;;;;;;1.85;1.42;;;16.90;1.00;;;;;;4883546;29;20053;-39
2023/04/28 07:27:35;;;;;;;2.65;1.80;;;16.90;1.00;;;;;;4885001;29;20545;-40
2023/04/28 07:30:02;;;;;;;3.47;1.88;;;16.90;1.00;;;;;;4884872;29;20048;-39
2023/04/28 07:32:44;;;;;;;3.60;1.63;;;16.90;1.00;;;;;;4869292;29;20049;-39
2023/04/28 07:35:11;;;;;;;5.45;1.90;;;16.90;1.00;;;;;;4882718;29;20045;-39
2023/04/28 07:37:38;;;;;;;4.60;1.92;;;16.90;1.00;;;;;;4883418;29;20037;-40
2023/04/28 07:40:05;;;;;;;2.58;1.75;;;16.90;1.00;;;;;;4884710;29;20089;-39
2023/04/28 07:42:32;;;;;;;2.80;2.05;;;16.90;1.00;;;;;;4884565;29;20037;-39
2023/04/28 07:44:59;;;;;;;4.60;2.20;;;16.90;1.00;;;;;;4884289;29;20058;-39
2023/04/28 07:47:28;;;;;;;3.42;1.70;;;16.90;1.00;;;;;;4870469;29;20102;-38
2023/04/28 07:49:54;;;;;;;3.45;1.85;;;16.90;1.00;;;;;;4885525;29;20073;-38
2023/04/28 07:52:22;;;;;;;7.45;2.47;;;16.80;1.00;;;;;;4885300;29;20068;-38
2023/04/28 07:54:48;;;;;;;7.32;2.15;;;16.90;1.00;;;;;;4879999;29;20417;-39
2023/04/28 07:57:15;;;;;;;6.68;4.47;;;16.90;1.00;;;;;;4871147;29;20470;-41
2023/04/28 07:59:42;;;;;;;8.32;5.45;;;16.80;1.00;;;;;;4879824;29;20052;-39
2023/04/28 08:02:12;;;;;;;7.88;4.97;;;16.90;1.00;;;;;;4879082;29;20052;-40
2023/04/28 08:04:38;;;;;;;7.95;4.65;;;16.80;1.00;;;;;;4878677;29;20037;-39
2023/04/28 08:07:07;;;;;;;8.00;4.22;;;16.80;1.00;;;;;;4871234;29;20052;-39
2023/04/28 08:09:34;;;;;;;4.75;3.67;;;16.80;1.00;;;;;;4878990;29;20100;-39
2023/04/28 08:12:01;;;;;;;3.70;2.60;;;16.90;1.00;;;;;;4878903;29;20047;-39
2023/04/28 08:14:28;;;;;;;5.43;3.22;;;16.80;1.00;;;;;;4878565;29;20406;-39
2023/04/28 08:16:56;;;;;;;5.88;3.30;;;16.80;1.00;;;;;;4879383;29;20671;-39
2023/04/28 08:19:23;;;;;;;6.63;3.28;;;16.80;1.00;;;;;;4879067;29;20072;-40
2023/04/28 08:21:50;;;;;;;6.78;2.50;;;16.80;1.00;;;;;;4871348;29;20060;-41
2023/04/28 08:24:17;;;;;;;11.40;3.97;;;16.90;1.00;;;;;;4878283;29;20052;-40
2023/04/28 08:26:44;;;;;;;5.82;3.10;;;16.80;1.00;;;;;;4878749;29;20143;-40
2023/04/28 08:29:11;;;;;;;5.28;2.63;;;16.80;1.00;;;;;;4879397;29;20096;-39
2023/04/28 08:31:38;;;;;;;4.72;2.95;;;16.80;1.00;;;;;;4878875;29;20078;-39
2023/04/28 08:34:05;;;;;;;5.00;2.80;;;16.90;1.00;;;;;;4870213;29;20080;-41
2023/04/28 08:36:32;;;;;;;4.60;3.03;;;16.80;1.00;;;;;;4871466;29;20117;-40
2023/04/28 08:39:01;;;;;;;5.70;2.42;;;16.80;1.00;;;;;;4879087;29;20469;-39
2023/04/28 08:41:31;;;;;;;2.95;1.88;;;16.80;1.00;;;;;;4878761;29;20105;-41
2023/04/28 08:43:58;;;;;;;3.53;2.60;;;16.80;1.00;;;;;;4877227;29;20128;-38
2023/04/28 08:46:26;;;;;;;7.30;2.92;;;16.80;1.00;;;;;;4878940;29;20528;-38
2023/04/28 08:49:00;;;;;;;4.78;2.20;;;16.80;1.00;;;;;;4878984;29;20052;-41
2023/04/28 08:51:33;;;;;;;8.27;3.13;;;16.90;1.00;;;;;;4878923;29;20041;-39
2023/04/28 08:54:05;;;;;;;5.65;2.47;;;16.90;1.00;;;;;;4878594;29;20048;-42
2023/04/28 08:56:35;;;;;;;3.58;2.67;;;16.80;1.00;;;;;;4878888;29;20070;-41
2023/04/28 08:59:03;;;;;;;8.57;2.60;;;16.90;1.00;;;;;;4878820;29;20087;-38
2023/04/28 09:01:31;;;;;;;5.40;2.42;;;16.80;1.00;;;;;;4879529;29;20133;-38
2023/04/28 09:04:01;;;;;;;5.07;2.40;;;16.80;1.00;;;;;;4878491;29;20048;-38
2023/04/28 09:06:37;;;;;;;4.35;2.03;;;16.80;1.00;;;;;;4871325;29;20037;-39
2023/04/28 09:09:24;;;;;;;2.92;2.60;;;16.80;1.00;;;;;;4879660;29;20101;-39
2023/04/28 09:12:02;;;;;;;5.43;2.22;;;16.80;1.00;;;;;;4879787;29;20502;-39
2023/04/28 09:14:34;;;;;;;3.75;2.25;;;16.80;1.00;;;;;;4878993;29;20065;-41
2023/04/28 09:17:01;;;;;;;3.60;2.20;;;16.80;1.00;;;;;;4880243;29;20095;-40
2023/04/28 09:19:36;;;;;;;4.35;2.97;;;16.80;1.00;;;;;;4879905;29;20040;-39
2023/04/28 09:22:04;;;;;;;2.95;2.30;;;16.80;1.00;;;;;;4879663;29;20131;-39
2023/04/28 09:24:51;;;;;;;5.10;2.78;;;16.80;1.00;;;;;;4868887;29;20277;-39
2023/04/28 09:27:28;;;;;;;4.80;2.78;;;16.80;1.00;;;;;;4879841;29;20097;-39
2023/04/28 09:29:55;;;;;;;4.90;3.03;;;16.80;1.00;;;;;;4878627;29;20052;-40
2023/04/28 09:32:22;;;;;;;5.15;2.22;;;16.80;1.00;;;;;;5014373;23;20131;-40
2023/04/28 09:34:52;;;;;;;3.63;2.72;;;16.80;1.00;;;;;;4891981;29;20041;-41
2023/04/28 09:37:21;;;;;;;7.32;2.75;;;16.80;1.00;;;;;;4893234;29;20045;-39
2023/04/28 09:39:50;;;;;;;2.63;2.35;;;16.80;1.00;;;;;;4903966;29;20104;-39
2023/04/28 09:42:36;;;;;;;2.75;2.20;;;16.80;1.00;;;;;;4895500;29;20045;-38
2023/04/28 09:45:09;;;;;;;4.50;2.35;;;16.80;1.00;;;;;;4901508;29;20048;-41
2023/04/28 09:47:38;;;;;;;4.83;2.17;;;16.80;1.00;;;;;;4897023;29;20394;-39
2023/04/28 09:50:10;;;;;;;5.45;2.40;;;16.80;1.00;;;;;;4889385;29;20511;-40
2023/04/28 09:52:36;;;;;;;4.93;2.30;;;16.80;1.00;;;;;;4900579;29;20088;-41
2023/04/28 09:55:05;;;;;;;3.55;2.35;;;16.80;1.00;;;;;;4899983;29;20053;-39
2023/04/28 09:57:34;;;;;;;5.93;2.88;;;16.80;1.00;;;;;;4900489;29;20077;-42
2023/04/28 10:00:04;;;;;;;4.22;2.55;;;16.80;1.00;;;;;;4893409;29;20048;-38
2023/04/28 10:02:34;;;;;;;5.95;2.83;;;16.80;1.00;;;;;;4899536;23;20045;-38
2023/04/28 10:05:07;;;;;;;2.80;1.92;;;16.80;1.00;;;;;;4893426;29;20076;-38
2023/04/28 10:07:35;;;;;;;2.47;2.28;;;16.80;1.00;;;;;;4896296;29;20045;-38
2023/04/28 10:10:03;;;;;;;3.17;2.33;;;16.80;1.00;;;;;;4903075;29;20044;-38
2023/04/28 10:12:31;;;;;;;4.28;2.35;;;16.80;1.00;;;;;;4892604;29;20046;-39
2023/04/28 10:14:59;;;;;;;4.65;3.08;;;16.80;1.00;;;;;;4900136;29;20087;-38
2023/04/28 10:17:28;;;;;;;3.20;1.92;;;16.80;1.00;;;;;;4890570;29;20053;-38
2023/04/28 10:19:55;;;;;;;6.35;2.58;;;16.80;1.00;;;;;;4888363;29;20146;-39
2023/04/28 10:23:16;;;;;;;3.03;2.30;;;16.80;1.00;;;;;;4903500;29;20100;-38
2023/04/28 10:25:48;;;;;;;2.72;1.85;;;16.80;1.00;;;;;;4872612;29;20050;-39
2023/04/28 10:28:15;;;;;;;2.95;2.30;;;16.80;1.00;;;;;;4882351;29;20053;-38
2023/04/28 10:31:10;;;;;;;3.00;2.00;;;16.80;1.00;;;;;;4894953;29;20493;-40
2023/04/28 10:33:38;;;;;;;2.45;1.83;;;16.80;1.00;;;;;;4901100;29;20497;-39
2023/04/28 10:36:06;;;;;;;3.45;2.35;;;16.80;1.00;;;;;;4900548;29;20456;-39
2023/04/28 10:38:34;;;;;;;3.92;2.08;;;16.80;1.00;;;;;;4892118;29;20068;-39
2023/04/28 10:41:03;;;;;;;5.10;2.15;;;16.80;1.00;;;;;;4900020;29;20052;-41
2023/04/28 10:43:38;;;;;;;4.70;2.38;;;16.80;1.00;;;;;;4896711;29;20053;-41
2023/04/28 10:46:07;;;;;;;3.17;2.30;;;16.80;1.00;;;;;;4887221;29;20072;-39
2023/04/28 10:48:46;;;;;;;3.25;2.13;;;16.80;1.00;;;;;;4900084;29;20413;-40
2023/04/28 10:51:21;;;;;;;3.25;2.20;;;16.80;1.00;;;;;;4899941;29;20085;-39
2023/04/28 10:53:49;;;;;;;6.13;2.38;;;16.80;1.00;;;;;;4899266;29;20080;-38
2023/04/28 10:56:23;;;;;;;2.88;1.90;;;16.80;1.00;;;;;;4899505;29;20041;-38
2023/04/28 10:58:51;;;;;;;4.47;2.60;;;16.80;1.00;;;;;;4899733;29;20532;-39
2023/04/28 11:01:21;;;;;;;4.88;2.20;;;16.80;1.00;;;;;;4901854;29;20052;-39
2023/04/28 11:03:59;;;;;;;3.22;1.92;;;16.80;1.00;;;;;;5465901;23;20172;-39
2023/04/28 11:06:33;;;;;;;2.90;2.45;;;16.80;1.00;;;;;;4871021;29;20104;-39
2023/04/28 11:09:16;;;;;;;3.72;2.35;;;16.80;1.00;;;;;;4878891;29;20083;-39
2023/04/28 11:12:05;;;;;;;2.88;1.88;;;16.80;1.00;;;;;;4865937;29;20046;-39
2023/04/28 11:14:33;;;;;;;4.72;2.33;;;16.80;1.00;;;;;;4880135;29;20588;-39
2023/04/28 11:17:05;;;;;;;7.40;2.38;;;16.80;1.00;;;;;;4881809;29;20151;-39
2023/04/28 11:19:35;;;;;;;3.22;2.00;;;16.80;1.00;;;;;;4881863;29;20084;-39
2023/04/28 11:22:12;;;;;;;3.40;2.15;;;16.80;1.00;;;;;;4881497;29;20049;-40
2023/04/28 11:24:39;;;;;;;4.72;2.78;;;16.80;1.00;;;;;;4880836;29;20037;-41
2023/04/28 11:27:06;;;;;;;3.67;2.03;;;16.80;1.00;;;;;;4882161;29;20125;-39
2023/04/28 11:29:36;;;;;;;3.67;2.10;;;16.80;1.00;;;;;;4880956;29;20049;-41
2023/04/28 11:32:04;;;;;;;3.70;1.75;;;16.80;1.00;;;;;;4882916;29;20553;-40
2023/04/28 11:34:32;;;;;;;4.63;2.22;;;16.80;1.00;;;;;;4882688;29;20109;-39
2023/04/28 11:36:59;;;;;;;3.85;1.80;;;16.80;1.00;;;;;;4876940;29;20045;-38
2023/04/28 11:39:27;;;;;;;3.78;2.25;;;16.80;1.00;;;;;;4885324;29;20453;-38
2023/04/28 11:41:54;;;;;;;4.88;2.03;;;16.80;1.00;;;;;;4885551;29;20045;-38
2023/04/28 11:44:24;;;;;;;3.33;1.92;;;16.80;1.00;;;;;;4884613;29;20070;-38
2023/04/28 11:46:58;;;;;;;3.75;2.00;;;16.80;1.00;;;;;;4885188;29;20045;-39
2023/04/28 11:49:27;;;;;;;2.10;1.90;;;16.80;1.00;;;;;;4884887;29;20049;-39
2023/04/28 11:51:56;;;;;;;4.10;1.80;;;16.80;1.00;;;;;;4884687;29;20063;-39
2023/04/28 11:54:24;;;;;;;3.28;1.52;;;16.80;1.00;;;;;;4876286;29;20050;-39
2023/04/28 11:56:52;;;;;;;3.55;2.20;;;16.80;1.00;;;;;;4884765;29;20520;-39
2023/04/28 11:59:24;;;;;;;2.30;2.03;;;16.80;1.00;;;;;;4875661;29;20084;-39
2023/04/28 12:02:01;;;;;;;;;;;16.80;1.00;;;;;;4884736;29;20056;-39
2023/04/28 12:04:30;;;;;;;2.05;1.35;;;16.80;1.00;;;;;;4881737;29;19958;-39
2023/04/28 12:06:59;;;;;;;2.95;1.65;;;16.80;1.00;;;;;;5168303;23;20175;-38
2023/04/28 12:09:26;;;;;;;2.53;1.60;;;16.70;1.00;;;;;;4894173;29;20646;-39
2023/04/28 12:11:58;;;;;;;2.67;1.63;;;16.80;1.00;;;;;;4892500;29;20075;-39
2023/04/28 12:14:25;;;;;;;3.75;2.00;;;16.80;1.00;;;;;;4900992;29;20266;-39
2023/04/28 12:16:52;;;;;;;2.72;1.48;;;16.70;1.00;;;;;;4894193;29;20055;-39
2023/04/28 12:19:19;;;;;;;1.98;1.35;;;16.80;1.00;;;;;;4893221;29;20497;-40
2023/04/28 12:22:06;;;;;;;3.88;1.80;;;16.80;1.00;;;;;;4894840;29;20070;-40
2023/04/28 12:24:34;;;;;;;1.83;1.33;;;16.80;1.00;;;;;;4895491;29;20464;-38
2023/04/28 12:27:20;;;;;;;1.85;1.42;;;16.80;1.00;;;;;;4893859;29;20044;-38
2023/04/28 12:29:47;;;;;;;3.47;1.83;;;16.80;1.00;;;;;;4898176;29;20663;-39
2023/04/28 12:32:14;;;;;;;3.58;2.40;;;16.80;1.00;;;;;;4898129;29;20048;-41
2023/04/28 12:34:43;;;;;;;5.32;1.50;;;16.80;1.00;;;;;;4878765;29;20049;-40
2023/04/28 12:37:11;;;;;;;3.28;2.08;;;16.80;1.00;;;;;;4886045;29;20062;-39
2023/04/28 12:39:39;;;;;;;2.88;1.55;;;16.80;1.00;;;;;;4898100;29;20056;-38
2023/04/28 12:42:06;;;;;;;3.63;2.33;;;16.80;1.00;;;;;;4892706;29;20131;-38
2023/04/28 12:44:34;;;;;;;4.65;2.17;;;16.80;1.00;;;;;;4898797;29;20045;-39
2023/04/28 12:47:09;;;;;;;3.35;1.98;;;16.80;1.00;;;;;;4900514;29;20041;-39
2023/04/28 12:49:37;;;;;;;3.63;1.80;;;16.80;1.00;;;;;;4898724;29;20048;-38
2023/04/28 12:52:05;;;;;;;2.33;1.65;;;16.80;1.00;;;;;;4890612;29;20476;-40
2023/04/28 12:54:32;;;;;;;7.65;1.88;;;16.80;1.00;;;;;;4897346;29;20049;-39
2023/04/28 12:56:59;;;;;;;4.38;1.98;;;16.80;1.00;;;;;;4898504;29;20056;-38
2023/04/28 12:59:26;;;;;;;2.25;1.65;;;16.80;1.00;;;;;;4886546;29;20045;-38
2023/04/28 13:01:52;;;;;;;3.40;1.75;;;16.80;1.00;;;;;;4903314;29;20072;-38
2023/04/28 13:04:20;;;;;;;2.33;1.42;;;16.80;1.00;;;;;;4902520;29;20044;-38
2023/04/28 13:06:47;;;;;;;3.08;1.77;;;16.80;1.00;;;;;;4885401;29;20508;-39
2023/04/28 13:09:15;;;;;;;4.07;1.85;;;16.80;1.00;;;;;;4895561;29;20053;-39
2023/04/28 13:11:42;;;;;;;1.90;1.45;;;16.80;1.00;;;;;;4894219;29;20049;-40
2023/04/28 13:14:09;;;;;;;3.13;1.58;;;16.80;1.00;;;;;;4889107;29;20056;-38